sensor_id;sensor_type;location;lat;lon;timestamp;pressure;altitude;pressure_sealevel;temperature;humidity
9905;BME280;4991;43.566;27.820;2022-12-29T00:00:09;100019.50;;;0.53;100.00
9905;BME280;4991;43.566;27.820;2022-12-29T00:02:36;100001.34;;;0.55;100.00
9905;BME280;4991;43.566;27.820;2022-12-29T00:05:02;100007.97;;;0.53;100.00
9905;BME280;4991;43.566;27.820;2022-12-29T00:07:27;100010.00;;;0.57;100.00
9905;BME280;4991;43.566;27.820;2022-12-29T00:09:53;100005.91;;;0.55;100.00
9905;BME280;4991;43.566;27.820;2022-12-29T00:12:18;100003.41;;;0.60;100.00
9905;BME280;4991;43.566;27.820;2022-12-29T00:14:44;100004.84;;;0.62;100.00
9905;BME280;4991;43.566;27.820;2022-12-29T00:17:28;99995.53;;;0.65;100.00
9905;BME280;4991;43.566;27.820;2022-12-29T00:19:54;99997.84;;;0.68;100.00
9905;BME280;4991;43.566;27.820;2022-12-29T00:22:38;100005.22;;;0.72;100.00
9905;BME280;4991;43.566;27.820;2022-12-29T00:25:22;100010.34;;;0.80;100.00
9905;BME280;4991;43.566;27.820;2022-12-29T00:28:08;100009.91;;;0.90;100.00
9905;BME280;4991;43.566;27.820;2022-12-29T00:30:52;100010.75;;;0.84;100.00
9905;BME280;4991;43.566;27.820;2022-12-29T00:33:36;100007.88;;;0.85;100.00
9905;BME280;4991;43.566;27.820;2022-12-29T00:38:58;99999.91;;;1.10;100.00
9905;BME280;4991;43.566;27.820;2022-12-29T00:41:43;100001.31;;;1.25;100.00
9905;BME280;4991;43.566;27.820;2022-12-29T00:44:27;99996.47;;;1.41;100.00
9905;BME280;4991;43.566;27.820;2022-12-29T00:46:53;99991.25;;;1.52;100.00
9905;BME280;4991;43.566;27.820;2022-12-29T00:49:19;100003.28;;;1.68;100.00
9905;BME280;4991;43.566;27.820;2022-12-29T00:54:28;99987.13;;;1.81;100.00
9905;BME280;4991;43.566;27.820;2022-12-29T00:56:54;99978.63;;;1.84;100.00
9905;BME280;4991;43.566;27.820;2022-12-29T00:59:20;99980.03;;;1.86;100.00
9905;BME280;4991;43.566;27.820;2022-12-29T01:01:47;99975.44;;;1.93;100.00
9905;BME280;4991;43.566;27.820;2022-12-29T01:04:12;99967.00;;;1.90;100.00
9905;BME280;4991;43.566;27.820;2022-12-29T01:06:39;99960.16;;;1.94;100.00
9905;BME280;4991;43.566;27.820;2022-12-29T01:09:06;99958.66;;;1.98;100.00
9905;BME280;4991;43.566;27.820;2022-12-29T01:11:50;99946.59;;;2.07;100.00
9905;BME280;4991;43.566;27.820;2022-12-29T01:14:17;99941.66;;;2.04;100.00
9905;BME280;4991;43.566;27.820;2022-12-29T01:16:43;99942.31;;;1.99;100.00
9905;BME280;4991;43.566;27.820;2022-12-29T01:19:08;99945.00;;;1.99;100.00
9905;BME280;4991;43.566;27.820;2022-12-29T01:21:34;99941.91;;;1.96;100.00
9905;BME280;4991;43.566;27.820;2022-12-29T01:24:00;99930.59;;;1.94;100.00
9905;BME280;4991;43.566;27.820;2022-12-29T01:26:25;99925.81;;;1.96;100.00
9905;BME280;4991;43.566;27.820;2022-12-29T01:28:51;99923.72;;;1.98;100.00
9905;BME280;4991;43.566;27.820;2022-12-29T01:31:17;99922.63;;;2.05;100.00
9905;BME280;4991;43.566;27.820;2022-12-29T01:33:43;99914.66;;;2.17;100.00
9905;BME280;4991;43.566;27.820;2022-12-29T01:36:14;99912.88;;;2.29;100.00
9905;BME280;4991;43.566;27.820;2022-12-29T01:38:40;99915.50;;;2.35;100.00
9905;BME280;4991;43.566;27.820;2022-12-29T01:41:08;99907.94;;;2.44;100.00
9905;BME280;4991;43.566;27.820;2022-12-29T01:43:51;99905.03;;;2.45;100.00
9905;BME280;4991;43.566;27.820;2022-12-29T01:48:57;99890.63;;;2.58;100.00
9905;BME280;4991;43.566;27.820;2022-12-29T01:51:26;99898.22;;;2.61;100.00
9905;BME280;4991;43.566;27.820;2022-12-29T01:53:56;99903.16;;;2.64;100.00
9905;BME280;4991;43.566;27.820;2022-12-29T01:56:23;99904.59;;;2.67;100.00
9905;BME280;4991;43.566;27.820;2022-12-29T01:58:58;99899.44;;;2.65;100.00
9905;BME280;4991;43.566;27.820;2022-12-29T02:01:25;99893.84;;;2.67;100.00
9905;BME280;4991;43.566;27.820;2022-12-29T02:03:51;99903.06;;;2.71;100.00
9905;BME280;4991;43.566;27.820;2022-12-29T02:06:24;99892.69;;;2.74;100.00
9905;BME280;4991;43.566;27.820;2022-12-29T02:08:53;99902.97;;;2.77;100.00
9905;BME280;4991;43.566;27.820;2022-12-29T02:11:21;99891.44;;;2.77;100.00
9905;BME280;4991;43.566;27.820;2022-12-29T02:13:48;99890.81;;;2.75;100.00
9905;BME280;4991;43.566;27.820;2022-12-29T02:24:49;99904.69;;;2.42;100.00
9905;BME280;4991;43.566;27.820;2022-12-29T02:27:34;99898.25;;;2.25;100.00
9905;BME280;4991;43.566;27.820;2022-12-29T02:30:11;99902.31;;;2.09;100.00
9905;BME280;4991;43.566;27.820;2022-12-29T02:41:08;99888.56;;;1.81;100.00
9905;BME280;4991;43.566;27.820;2022-12-29T02:44:03;99882.88;;;1.89;100.00
9905;BME280;4991;43.566;27.820;2022-12-29T02:46:41;99878.28;;;1.96;100.00
9905;BME280;4991;43.566;27.820;2022-12-29T02:51:50;99878.91;;;1.98;100.00
9905;BME280;4991;43.566;27.820;2022-12-29T02:54:18;99872.25;;;2.01;100.00
9905;BME280;4991;43.566;27.820;2022-12-29T02:57:30;99872.47;;;1.99;100.00
9905;BME280;4991;43.566;27.820;2022-12-29T03:00:01;99874.69;;;2.02;100.00
9905;BME280;4991;43.566;27.820;2022-12-29T03:08:19;99894.97;;;1.80;100.00
9905;BME280;4991;43.566;27.820;2022-12-29T03:10:54;99884.81;;;1.64;100.00
9905;BME280;4991;43.566;27.820;2022-12-29T03:13:49;99883.09;;;1.70;100.00
9905;BME280;4991;43.566;27.820;2022-12-29T03:16:44;99887.69;;;1.87;100.00
9905;BME280;4991;43.566;27.820;2022-12-29T03:19:35;99893.16;;;1.99;100.00
9905;BME280;4991;43.566;27.820;2022-12-29T03:22:04;99892.03;;;2.06;100.00
9905;BME280;4991;43.566;27.820;2022-12-29T03:24:55;99887.19;;;2.15;100.00
9905;BME280;4991;43.566;27.820;2022-12-29T03:27:27;99884.44;;;2.21;100.00
9905;BME280;4991;43.566;27.820;2022-12-29T03:29:57;99883.03;;;2.19;100.00
9905;BME280;4991;43.566;27.820;2022-12-29T03:32:29;99893.91;;;2.24;100.00
9905;BME280;4991;43.566;27.820;2022-12-29T03:34:57;99892.28;;;2.23;100.00
9905;BME280;4991;43.566;27.820;2022-12-29T03:37:28;99883.53;;;2.27;100.00
9905;BME280;4991;43.566;27.820;2022-12-29T03:39:56;99884.50;;;2.33;100.00
9905;BME280;4991;43.566;27.820;2022-12-29T03:42:25;99887.94;;;2.40;100.00
9905;BME280;4991;43.566;27.820;2022-12-29T03:44:54;99879.88;;;2.40;100.00
9905;BME280;4991;43.566;27.820;2022-12-29T03:47:22;99890.19;;;2.43;100.00
9905;BME280;4991;43.566;27.820;2022-12-29T03:49:48;99896.63;;;2.42;100.00
9905;BME280;4991;43.566;27.820;2022-12-29T03:52:14;99884.44;;;2.39;100.00
9905;BME280;4991;43.566;27.820;2022-12-29T03:54:40;99882.34;;;2.41;100.00
9905;BME280;4991;43.566;27.820;2022-12-29T03:57:06;99890.63;;;2.40;100.00
9905;BME280;4991;43.566;27.820;2022-12-29T03:59:33;99892.25;;;2.41;100.00
9905;BME280;4991;43.566;27.820;2022-12-29T04:01:58;99885.03;;;2.41;100.00
9905;BME280;4991;43.566;27.820;2022-12-29T04:04:24;99893.31;;;2.40;100.00
9905;BME280;4991;43.566;27.820;2022-12-29T04:06:50;99891.50;;;2.34;100.00
9905;BME280;4991;43.566;27.820;2022-12-29T04:09:15;99893.25;;;2.28;100.00
9905;BME280;4991;43.566;27.820;2022-12-29T04:11:41;99890.19;;;2.25;100.00
9905;BME280;4991;43.566;27.820;2022-12-29T04:14:06;99886.88;;;2.23;100.00
9905;BME280;4991;43.566;27.820;2022-12-29T04:16:32;99891.09;;;2.19;100.00
9905;BME280;4991;43.566;27.820;2022-12-29T04:19:01;99890.19;;;2.25;100.00
9905;BME280;4991;43.566;27.820;2022-12-29T04:21:27;99887.13;;;2.21;100.00
9905;BME280;4991;43.566;27.820;2022-12-29T04:23:53;99887.34;;;2.20;100.00
9905;BME280;4991;43.566;27.820;2022-12-29T04:26:18;99878.16;;;2.09;100.00
9905;BME280;4991;43.566;27.820;2022-12-29T04:28:44;99885.56;;;2.14;100.00
9905;BME280;4991;43.566;27.820;2022-12-29T04:31:10;99884.66;;;2.20;100.00
9905;BME280;4991;43.566;27.820;2022-12-29T04:33:36;99891.97;;;2.13;100.00
9905;BME280;4991;43.566;27.820;2022-12-29T04:36:01;99891.50;;;2.16;100.00
9905;BME280;4991;43.566;27.820;2022-12-29T04:38:27;99897.50;;;2.18;100.00
9905;BME280;4991;43.566;27.820;2022-12-29T04:40:53;99893.56;;;2.20;100.00
9905;BME280;4991;43.566;27.820;2022-12-29T04:43:18;99888.41;;;2.19;100.00
9905;BME280;4991;43.566;27.820;2022-12-29T04:45:45;99895.41;;;2.20;100.00
9905;BME280;4991;43.566;27.820;2022-12-29T04:48:11;99896.47;;;2.19;100.00
9905;BME280;4991;43.566;27.820;2022-12-29T04:50:38;99903.00;;;2.23;100.00
9905;BME280;4991;43.566;27.820;2022-12-29T04:53:03;99901.69;;;2.14;100.00
9905;BME280;4991;43.566;27.820;2022-12-29T04:55:29;99911.28;;;2.03;100.00
9905;BME280;4991;43.566;27.820;2022-12-29T04:57:55;99908.34;;;1.87;100.00
9905;BME280;4991;43.566;27.820;2022-12-29T05:00:21;99905.56;;;1.75;100.00
9905;BME280;4991;43.566;27.820;2022-12-29T05:02:46;99902.09;;;1.68;100.00
9905;BME280;4991;43.566;27.820;2022-12-29T05:05:12;99913.06;;;1.67;100.00
9905;BME280;4991;43.566;27.820;2022-12-29T05:07:38;99908.19;;;1.57;100.00
9905;BME280;4991;43.566;27.820;2022-12-29T05:10:04;99910.88;;;1.57;100.00
9905;BME280;4991;43.566;27.820;2022-12-29T05:12:31;99902.50;;;1.47;100.00
9905;BME280;4991;43.566;27.820;2022-12-29T05:14:57;99904.84;;;1.37;100.00
9905;BME280;4991;43.566;27.820;2022-12-29T05:17:23;99911.44;;;1.34;100.00
9905;BME280;4991;43.566;27.820;2022-12-29T05:19:48;99919.72;;;1.33;100.00
9905;BME280;4991;43.566;27.820;2022-12-29T05:22:14;99922.00;;;1.29;100.00
9905;BME280;4991;43.566;27.820;2022-12-29T05:24:39;99918.13;;;1.25;100.00
9905;BME280;4991;43.566;27.820;2022-12-29T05:27:05;99912.75;;;1.25;100.00
9905;BME280;4991;43.566;27.820;2022-12-29T05:29:31;99913.38;;;1.27;100.00
9905;BME280;4991;43.566;27.820;2022-12-29T05:31:56;99913.28;;;1.41;100.00
9905;BME280;4991;43.566;27.820;2022-12-29T05:34:22;99916.69;;;1.54;100.00
9905;BME280;4991;43.566;27.820;2022-12-29T05:36:48;99915.13;;;1.65;100.00
9905;BME280;4991;43.566;27.820;2022-12-29T05:39:13;99919.81;;;1.76;100.00
9905;BME280;4991;43.566;27.820;2022-12-29T05:41:39;99923.25;;;1.83;100.00
9905;BME280;4991;43.566;27.820;2022-12-29T05:44:05;99921.31;;;1.90;100.00
9905;BME280;4991;43.566;27.820;2022-12-29T05:46:30;99914.66;;;1.99;100.00
9905;BME280;4991;43.566;27.820;2022-12-29T05:48:56;99910.34;;;1.91;100.00
9905;BME280;4991;43.566;27.820;2022-12-29T05:51:22;99911.03;;;1.87;100.00
9905;BME280;4991;43.566;27.820;2022-12-29T05:53:47;99892.63;;;1.90;100.00
9905;BME280;4991;43.566;27.820;2022-12-29T05:56:13;99891.94;;;1.95;100.00
9905;BME280;4991;43.566;27.820;2022-12-29T05:58:39;99891.34;;;1.93;100.00
9905;BME280;4991;43.566;27.820;2022-12-29T06:01:04;99902.00;;;1.99;100.00
9905;BME280;4991;43.566;27.820;2022-12-29T06:03:30;99907.31;;;2.06;100.00
9905;BME280;4991;43.566;27.820;2022-12-29T06:05:56;99900.47;;;2.10;100.00
9905;BME280;4991;43.566;27.820;2022-12-29T06:08:21;99901.63;;;2.20;100.00
9905;BME280;4991;43.566;27.820;2022-12-29T06:10:47;99905.72;;;2.41;100.00
9905;BME280;4991;43.566;27.820;2022-12-29T06:13:13;99917.28;;;2.59;100.00
9905;BME280;4991;43.566;27.820;2022-12-29T06:15:39;99902.28;;;2.70;100.00
9905;BME280;4991;43.566;27.820;2022-12-29T06:18:04;99918.78;;;2.74;100.00
9905;BME280;4991;43.566;27.820;2022-12-29T06:20:30;99912.13;;;2.76;100.00
9905;BME280;4991;43.566;27.820;2022-12-29T06:22:55;99918.47;;;2.82;100.00
9905;BME280;4991;43.566;27.820;2022-12-29T06:25:21;99918.84;;;2.85;100.00
9905;BME280;4991;43.566;27.820;2022-12-29T06:27:47;99913.66;;;2.84;100.00
9905;BME280;4991;43.566;27.820;2022-12-29T06:30:13;99910.03;;;2.78;100.00
9905;BME280;4991;43.566;27.820;2022-12-29T06:32:40;99895.59;;;2.73;100.00
9905;BME280;4991;43.566;27.820;2022-12-29T06:35:06;99906.00;;;2.69;100.00
9905;BME280;4991;43.566;27.820;2022-12-29T06:37:32;99900.69;;;2.62;100.00
9905;BME280;4991;43.566;27.820;2022-12-29T06:39:58;99911.31;;;2.57;100.00
9905;BME280;4991;43.566;27.820;2022-12-29T06:42:23;99903.97;;;2.64;100.00
9905;BME280;4991;43.566;27.820;2022-12-29T06:44:49;99910.75;;;2.67;100.00
9905;BME280;4991;43.566;27.820;2022-12-29T06:47:15;99908.44;;;2.71;100.00
9905;BME280;4991;43.566;27.820;2022-12-29T06:49:41;99908.53;;;2.64;100.00
9905;BME280;4991;43.566;27.820;2022-12-29T06:52:06;99897.47;;;2.72;100.00
9905;BME280;4991;43.566;27.820;2022-12-29T06:54:32;99895.97;;;2.76;100.00
9905;BME280;4991;43.566;27.820;2022-12-29T06:56:59;99900.00;;;2.85;100.00
9905;BME280;4991;43.566;27.820;2022-12-29T06:59:25;99905.06;;;2.93;100.00
9905;BME280;4991;43.566;27.820;2022-12-29T07:01:53;99905.78;;;3.00;100.00
9905;BME280;4991;43.566;27.820;2022-12-29T07:04:18;99917.06;;;3.09;100.00
9905;BME280;4991;43.566;27.820;2022-12-29T07:06:44;99902.00;;;3.19;100.00
9905;BME280;4991;43.566;27.820;2022-12-29T07:09:10;99905.31;;;3.33;100.00
9905;BME280;4991;43.566;27.820;2022-12-29T07:11:35;99900.56;;;3.46;100.00
9905;BME280;4991;43.566;27.820;2022-12-29T07:14:01;99914.28;;;3.56;100.00
9905;BME280;4991;43.566;27.820;2022-12-29T07:16:27;99906.56;;;3.71;100.00
9905;BME280;4991;43.566;27.820;2022-12-29T07:18:55;99908.81;;;3.86;100.00
9905;BME280;4991;43.566;27.820;2022-12-29T07:21:22;99913.63;;;3.95;100.00
9905;BME280;4991;43.566;27.820;2022-12-29T07:23:49;99920.75;;;4.02;100.00
9905;BME280;4991;43.566;27.820;2022-12-29T07:26:15;99910.09;;;4.07;100.00
9905;BME280;4991;43.566;27.820;2022-12-29T07:28:45;99914.94;;;4.16;100.00
9905;BME280;4991;43.566;27.820;2022-12-29T07:31:20;99921.09;;;4.28;100.00
9905;BME280;4991;43.566;27.820;2022-12-29T07:33:46;99914.19;;;4.44;100.00
9905;BME280;4991;43.566;27.820;2022-12-29T07:36:14;99919.91;;;4.59;100.00
9905;BME280;4991;43.566;27.820;2022-12-29T07:38:41;99922.59;;;4.59;100.00
9905;BME280;4991;43.566;27.820;2022-12-29T07:41:08;99921.84;;;4.75;100.00
9905;BME280;4991;43.566;27.820;2022-12-29T07:43:34;99919.38;;;4.85;100.00
9905;BME280;4991;43.566;27.820;2022-12-29T07:46:00;99925.94;;;4.89;100.00
9905;BME280;4991;43.566;27.820;2022-12-29T07:48:26;99924.47;;;4.98;100.00
9905;BME280;4991;43.566;27.820;2022-12-29T07:50:52;99918.25;;;5.09;100.00
9905;BME280;4991;43.566;27.820;2022-12-29T07:53:19;99925.72;;;5.18;100.00
9905;BME280;4991;43.566;27.820;2022-12-29T07:55:45;99931.53;;;5.27;100.00
9905;BME280;4991;43.566;27.820;2022-12-29T07:58:11;99931.88;;;5.31;100.00
9905;BME280;4991;43.566;27.820;2022-12-29T08:00:37;99926.34;;;5.37;100.00
9905;BME280;4991;43.566;27.820;2022-12-29T08:03:03;99925.59;;;5.42;100.00
9905;BME280;4991;43.566;27.820;2022-12-29T08:05:33;99926.56;;;5.52;100.00
9905;BME280;4991;43.566;27.820;2022-12-29T08:08:00;99932.66;;;5.59;100.00
9905;BME280;4991;43.566;27.820;2022-12-29T08:10:26;99931.94;;;5.64;100.00
9905;BME280;4991;43.566;27.820;2022-12-29T08:12:51;99934.00;;;5.73;100.00
9905;BME280;4991;43.566;27.820;2022-12-29T08:15:17;99930.22;;;5.74;100.00
9905;BME280;4991;43.566;27.820;2022-12-29T08:17:44;99938.03;;;5.87;100.00
9905;BME280;4991;43.566;27.820;2022-12-29T08:20:11;99930.75;;;5.88;100.00
9905;BME280;4991;43.566;27.820;2022-12-29T08:22:37;99935.16;;;5.94;100.00
9905;BME280;4991;43.566;27.820;2022-12-29T08:25:08;99935.16;;;6.10;100.00
9905;BME280;4991;43.566;27.820;2022-12-29T08:27:34;99930.97;;;6.19;100.00
9905;BME280;4991;43.566;27.820;2022-12-29T08:29:59;99929.09;;;6.20;100.00
9905;BME280;4991;43.566;27.820;2022-12-29T08:32:27;99931.38;;;6.28;100.00
9905;BME280;4991;43.566;27.820;2022-12-29T08:34:55;99928.00;;;6.37;100.00
9905;BME280;4991;43.566;27.820;2022-12-29T08:37:20;99929.78;;;6.48;100.00
9905;BME280;4991;43.566;27.820;2022-12-29T08:39:47;99919.53;;;6.50;100.00
9905;BME280;4991;43.566;27.820;2022-12-29T08:42:14;99919.66;;;6.61;100.00
9905;BME280;4991;43.566;27.820;2022-12-29T08:44:39;99919.97;;;6.64;100.00
9905;BME280;4991;43.566;27.820;2022-12-29T08:47:05;99911.94;;;6.69;100.00
9905;BME280;4991;43.566;27.820;2022-12-29T08:49:31;99908.84;;;6.82;100.00
9905;BME280;4991;43.566;27.820;2022-12-29T08:51:59;99904.13;;;6.94;100.00
9905;BME280;4991;43.566;27.820;2022-12-29T08:54:24;99907.19;;;7.03;100.00
9905;BME280;4991;43.566;27.820;2022-12-29T08:56:50;99902.84;;;7.02;100.00
9905;BME280;4991;43.566;27.820;2022-12-29T08:59:16;99902.69;;;7.13;100.00
9905;BME280;4991;43.566;27.820;2022-12-29T09:01:42;99906.75;;;7.11;100.00
9905;BME280;4991;43.566;27.820;2022-12-29T09:04:08;99901.13;;;7.17;100.00
9905;BME280;4991;43.566;27.820;2022-12-29T09:06:35;99910.50;;;7.95;100.00
9905;BME280;4991;43.566;27.820;2022-12-29T09:09:02;99899.28;;;9.21;100.00
9905;BME280;4991;43.566;27.820;2022-12-29T09:11:28;99896.09;;;10.24;100.00
9905;BME280;4991;43.566;27.820;2022-12-29T09:13:55;99889.97;;;11.26;100.00
9905;BME280;4991;43.566;27.820;2022-12-29T09:16:23;99891.63;;;12.33;100.00
9905;BME280;4991;43.566;27.820;2022-12-29T09:18:50;99878.78;;;12.81;100.00
9905;BME280;4991;43.566;27.820;2022-12-29T09:21:17;99873.34;;;13.05;100.00
9905;BME280;4991;43.566;27.820;2022-12-29T09:23:42;99876.34;;;13.77;100.00
9905;BME280;4991;43.566;27.820;2022-12-29T09:26:09;99870.59;;;14.70;100.00
9905;BME280;4991;43.566;27.820;2022-12-29T09:28:35;99871.38;;;14.71;100.00
9905;BME280;4991;43.566;27.820;2022-12-29T09:31:03;99861.72;;;14.33;100.00
9905;BME280;4991;43.566;27.820;2022-12-29T09:33:29;99860.09;;;15.13;100.00
9905;BME280;4991;43.566;27.820;2022-12-29T09:35:57;99843.59;;;16.37;100.00
9905;BME280;4991;43.566;27.820;2022-12-29T09:38:24;99852.53;;;16.82;100.00
9905;BME280;4991;43.566;27.820;2022-12-29T09:40:56;99846.84;;;16.69;100.00
9905;BME280;4991;43.566;27.820;2022-12-29T09:46:25;99825.75;;;17.13;100.00
9905;BME280;4991;43.566;27.820;2022-12-29T09:51:27;99820.41;;;17.25;100.00
9905;BME280;4991;43.566;27.820;2022-12-29T09:53:57;99825.16;;;17.67;100.00
9905;BME280;4991;43.566;27.820;2022-12-29T09:56:25;99812.78;;;18.07;100.00
9905;BME280;4991;43.566;27.820;2022-12-29T09:59:02;99814.53;;;18.03;100.00
9905;BME280;4991;43.566;27.820;2022-12-29T10:04:00;99816.53;;;17.43;100.00
9905;BME280;4991;43.566;27.820;2022-12-29T10:06:46;99806.00;;;17.11;100.00
9905;BME280;4991;43.566;27.820;2022-12-29T10:20:27;99785.13;;;15.62;100.00
9905;BME280;4991;43.566;27.820;2022-12-29T10:25:38;99779.66;;;14.90;100.00
9905;BME280;4991;43.566;27.820;2022-12-29T10:28:18;99783.16;;;14.69;100.00
9905;BME280;4991;43.566;27.820;2022-12-29T10:30:47;99777.69;;;14.42;100.00
9905;BME280;4991;43.566;27.820;2022-12-29T10:33:23;99786.16;;;14.13;100.00
9905;BME280;4991;43.566;27.820;2022-12-29T10:35:52;99777.88;;;13.40;100.00
9905;BME280;4991;43.566;27.820;2022-12-29T10:40:57;99791.25;;;13.42;100.00
9905;BME280;4991;43.566;27.820;2022-12-29T10:43:27;99783.19;;;13.50;100.00
9905;BME280;4991;43.566;27.820;2022-12-29T10:45:55;99786.44;;;13.52;100.00
9905;BME280;4991;43.566;27.820;2022-12-29T10:48:29;99788.69;;;13.96;100.00
9905;BME280;4991;43.566;27.820;2022-12-29T10:50:58;99792.44;;;14.00;100.00
9905;BME280;4991;43.566;27.820;2022-12-29T10:53:40;99791.72;;;14.08;100.00
9905;BME280;4991;43.566;27.820;2022-12-29T10:59:23;99792.16;;;13.19;100.00
9905;BME280;4991;43.566;27.820;2022-12-29T11:07:24;99784.84;;;13.14;100.00
9905;BME280;4991;43.566;27.820;2022-12-29T11:09:51;99779.25;;;12.82;100.00
9905;BME280;4991;43.566;27.820;2022-12-29T11:12:23;99783.69;;;12.59;100.00
9905;BME280;4991;43.566;27.820;2022-12-29T11:18:03;99768.56;;;13.41;100.00
9905;BME280;4991;43.566;27.820;2022-12-29T11:20:37;99772.84;;;13.93;100.00
9905;BME280;4991;43.566;27.820;2022-12-29T11:23:21;99777.34;;;14.16;100.00
9905;BME280;4991;43.566;27.820;2022-12-29T11:26:12;99772.88;;;14.20;100.00
9905;BME280;4991;43.566;27.820;2022-12-29T11:28:40;99769.19;;;13.84;100.00
9905;BME280;4991;43.566;27.820;2022-12-29T11:31:08;99771.25;;;14.05;100.00
9905;BME280;4991;43.566;27.820;2022-12-29T11:33:35;99772.41;;;14.32;100.00
9905;BME280;4991;43.566;27.820;2022-12-29T11:38:40;99758.41;;;14.47;100.00
9905;BME280;4991;43.566;27.820;2022-12-29T11:41:13;99759.94;;;14.39;100.00
9905;BME280;4991;43.566;27.820;2022-12-29T11:43:44;99754.41;;;14.53;100.00
9905;BME280;4991;43.566;27.820;2022-12-29T11:46:17;99746.31;;;14.48;100.00
9905;BME280;4991;43.566;27.820;2022-12-29T11:48:45;99745.63;;;14.56;100.00
9905;BME280;4991;43.566;27.820;2022-12-29T11:51:20;99748.69;;;14.90;100.00
9905;BME280;4991;43.566;27.820;2022-12-29T11:53:54;99748.03;;;15.06;100.00
9905;BME280;4991;43.566;27.820;2022-12-29T12:01:57;99735.66;;;15.53;100.00
9905;BME280;4991;43.566;27.820;2022-12-29T12:04:27;99740.31;;;15.75;100.00
9905;BME280;4991;43.566;27.820;2022-12-29T12:12:35;99729.06;;;16.89;100.00
9905;BME280;4991;43.566;27.820;2022-12-29T12:15:03;99738.28;;;16.28;100.00
9905;BME280;4991;43.566;27.820;2022-12-29T12:17:33;99735.78;;;16.09;100.00
9905;BME280;4991;43.566;27.820;2022-12-29T12:20:21;99727.25;;;15.36;100.00
9905;BME280;4991;43.566;27.820;2022-12-29T12:25:40;99733.13;;;14.99;100.00
9905;BME280;4991;43.566;27.820;2022-12-29T12:28:28;99730.63;;;15.77;100.00
9905;BME280;4991;43.566;27.820;2022-12-29T12:30:59;99720.31;;;15.83;100.00
9905;BME280;4991;43.566;27.820;2022-12-29T12:33:43;99714.81;;;16.13;100.00
9905;BME280;4991;43.566;27.820;2022-12-29T12:49:56;99706.38;;;18.06;93.06
9905;BME280;4991;43.566;27.820;2022-12-29T12:55:48;99710.13;;;18.39;88.70
9905;BME280;4991;43.566;27.820;2022-12-29T13:01:16;99714.41;;;19.60;81.32
9905;BME280;4991;43.566;27.820;2022-12-29T13:20:41;99715.44;;;16.49;86.76
9905;BME280;4991;43.566;27.820;2022-12-29T13:28:59;99728.06;;;15.14;97.32
9905;BME280;4991;43.566;27.820;2022-12-29T13:36:59;99717.25;;;14.74;99.71
9905;BME280;4991;43.566;27.820;2022-12-29T13:39:34;99720.31;;;14.59;100.00
9905;BME280;4991;43.566;27.820;2022-12-29T13:42:03;99727.31;;;14.65;100.00
9905;BME280;4991;43.566;27.820;2022-12-29T13:44:54;99725.09;;;14.40;100.00
9905;BME280;4991;43.566;27.820;2022-12-29T13:50:23;99719.81;;;14.02;100.00
9905;BME280;4991;43.566;27.820;2022-12-29T13:55:55;99728.13;;;13.84;100.00
9905;BME280;4991;43.566;27.820;2022-12-29T13:58:41;99716.22;;;13.75;100.00
9905;BME280;4991;43.566;27.820;2022-12-29T14:01:15;99713.97;;;13.63;100.00
9905;BME280;4991;43.566;27.820;2022-12-29T14:03:47;99721.97;;;13.46;100.00
9905;BME280;4991;43.566;27.820;2022-12-29T14:08:47;99715.59;;;12.81;100.00
9905;BME280;4991;43.566;27.820;2022-12-29T14:11:17;99723.84;;;12.58;100.00
9905;BME280;4991;43.566;27.820;2022-12-29T14:13:47;99712.78;;;12.49;100.00
9905;BME280;4991;43.566;27.820;2022-12-29T14:16:29;99717.53;;;12.20;100.00
9905;BME280;4991;43.566;27.820;2022-12-29T14:19:03;99709.53;;;12.05;100.00
9905;BME280;4991;43.566;27.820;2022-12-29T14:21:30;99720.31;;;11.92;100.00
9905;BME280;4991;43.566;27.820;2022-12-29T14:26:55;99729.69;;;11.52;100.00
9905;BME280;4991;43.566;27.820;2022-12-29T14:31:50;99725.84;;;11.24;100.00
9905;BME280;4991;43.566;27.820;2022-12-29T14:36:55;99725.06;;;10.85;100.00
9905;BME280;4991;43.566;27.820;2022-12-29T14:45:00;99732.91;;;10.48;100.00
9905;BME280;4991;43.566;27.820;2022-12-29T14:49:56;99728.38;;;10.28;100.00
9905;BME280;4991;43.566;27.820;2022-12-29T14:52:27;99731.94;;;10.19;100.00
9905;BME280;4991;43.566;27.820;2022-12-29T14:54:57;99732.25;;;10.07;100.00
9905;BME280;4991;43.566;27.820;2022-12-29T14:57:38;99732.81;;;9.94;100.00
9905;BME280;4991;43.566;27.820;2022-12-29T15:00:23;99737.75;;;9.82;100.00
9905;BME280;4991;43.566;27.820;2022-12-29T15:03:11;99737.50;;;9.74;100.00
9905;BME280;4991;43.566;27.820;2022-12-29T15:05:54;99736.44;;;9.65;100.00
9905;BME280;4991;43.566;27.820;2022-12-29T15:08:24;99735.34;;;9.61;100.00
9905;BME280;4991;43.566;27.820;2022-12-29T15:11:13;99727.19;;;9.51;100.00
9905;BME280;4991;43.566;27.820;2022-12-29T15:13:43;99734.31;;;9.42;100.00
9905;BME280;4991;43.566;27.820;2022-12-29T15:16:35;99726.66;;;9.34;100.00
9905;BME280;4991;43.566;27.820;2022-12-29T15:19:02;99724.78;;;9.24;100.00
9905;BME280;4991;43.566;27.820;2022-12-29T15:21:32;99728.31;;;9.20;100.00
9905;BME280;4991;43.566;27.820;2022-12-29T15:24:00;99736.47;;;9.09;100.00
9905;BME280;4991;43.566;27.820;2022-12-29T15:26:39;99728.31;;;8.99;100.00
9905;BME280;4991;43.566;27.820;2022-12-29T15:29:29;99724.47;;;8.85;100.00
9905;BME280;4991;43.566;27.820;2022-12-29T15:31:57;99721.78;;;8.75;100.00
9905;BME280;4991;43.566;27.820;2022-12-29T15:34:25;99725.00;;;8.67;100.00
9905;BME280;4991;43.566;27.820;2022-12-29T15:36:55;99728.78;;;8.56;100.00
9905;BME280;4991;43.566;27.820;2022-12-29T15:39:29;99732.56;;;8.45;100.00
9905;BME280;4991;43.566;27.820;2022-12-29T15:44:45;99722.94;;;8.23;100.00
9905;BME280;4991;43.566;27.820;2022-12-29T15:47:16;99726.72;;;8.17;100.00
9905;BME280;4991;43.566;27.820;2022-12-29T15:49:53;99724.00;;;8.12;100.00
9905;BME280;4991;43.566;27.820;2022-12-29T15:52:23;99724.22;;;8.00;100.00
9905;BME280;4991;43.566;27.820;2022-12-29T15:54:51;99728.22;;;7.93;100.00
9905;BME280;4991;43.566;27.820;2022-12-29T15:59:47;99733.59;;;7.77;100.00
9905;BME280;4991;43.566;27.820;2022-12-29T16:02:13;99728.91;;;7.68;100.00
9905;BME280;4991;43.566;27.820;2022-12-29T16:04:41;99730.81;;;7.67;100.00